sensor_id;sensor_type;location;lat;lon;timestamp;pressure;altitude;pressure_sealevel;temperature;humidity
63115;BME280;49208;50.874;6.466;2023-03-01T07:04:25;101609.94;;;-3.98;95.59
63115;BME280;49208;50.874;6.466;2023-03-01T07:06:53;101612.84;;;-3.91;95.52
63115;BME280;49208;50.874;6.466;2023-03-01T07:09:21;101618.47;;;-3.80;95.74
63115;BME280;49208;50.874;6.466;2023-03-01T07:11:47;101617.31;;;-3.67;95.43
63115;BME280;49208;50.874;6.466;2023-03-01T07:14:12;101608.47;;;-3.50;94.87
63115;BME280;49208;50.874;6.466;2023-03-01T07:16:38;101614.22;;;-3.36;94.24
63115;BME280;49208;50.874;6.466;2023-03-01T07:19:03;101620.09;;;-3.19;93.54
63115;BME280;49208;50.874;6.466;2023-03-01T07:21:30;101611.28;;;-3.00;92.59
63115;BME280;49208;50.874;6.466;2023-03-01T07:23:56;101608.72;;;-2.76;91.77
63115;BME280;49208;50.874;6.466;2023-03-01T07:26:21;101612.34;;;-2.48;90.21
63115;BME280;49208;50.874;6.466;2023-03-01T07:28:46;101604.38;;;-2.03;88.66
63115;BME280;49208;50.874;6.466;2023-03-01T07:31:12;101597.25;;;-1.27;85.86
63115;BME280;49208;50.874;6.466;2023-03-01T07:33:37;101588.66;;;-0.34;82.27
63115;BME280;49208;50.874;6.466;2023-03-01T07:36:04;101581.09;;;0.83;77.94
63115;BME280;49208;50.874;6.466;2023-03-01T07:38:30;101575.53;;;1.98;71.37
63115;BME280;49208;50.874;6.466;2023-03-01T07:41:01;101585.63;;;2.80;66.50
63115;BME280;49208;50.874;6.466;2023-03-01T07:43:28;101585.78;;;3.63;64.59
63115;BME280;49208;50.874;6.466;2023-03-01T07:45:53;101574.13;;;4.23;59.54
63115;BME280;49208;50.874;6.466;2023-03-01T07:48:18;101578.69;;;4.48;58.38
63115;BME280;49208;50.874;6.466;2023-03-01T07:50:44;101575.31;;;4.64;57.13
63115;BME280;49208;50.874;6.466;2023-03-01T07:53:10;101580.56;;;4.59;56.68
63115;BME280;49208;50.874;6.466;2023-03-01T07:55:36;101576.28;;;4.75;55.12
63115;BME280;49208;50.874;6.466;2023-03-01T07:58:01;101571.22;;;5.15;54.83
63115;BME280;49208;50.874;6.466;2023-03-01T08:00:26;101565.31;;;6.85;51.25
63115;BME280;49208;50.874;6.466;2023-03-01T08:02:52;101561.22;;;8.02;47.60
63115;BME280;49208;50.874;6.466;2023-03-01T08:05:18;101565.63;;;8.06;45.75
63115;BME280;49208;50.874;6.466;2023-03-01T08:07:43;101560.00;;;9.31;45.29
63115;BME280;49208;50.874;6.466;2023-03-01T08:10:09;101560.88;;;9.97;41.74
63115;BME280;49208;50.874;6.466;2023-03-01T08:12:34;101563.47;;;10.57;39.50
63115;BME280;49208;50.874;6.466;2023-03-01T08:15:00;101553.56;;;9.49;40.87
63115;BME280;49208;50.874;6.466;2023-03-01T08:17:25;101561.41;;;10.73;40.26
63115;BME280;49208;50.874;6.466;2023-03-01T08:19:51;101563.44;;;11.07;38.16
63115;BME280;49208;50.874;6.466;2023-03-01T08:22:16;101559.09;;;10.55;38.04
63115;BME280;49208;50.874;6.466;2023-03-01T08:24:41;101556.25;;;10.64;38.06
63115;BME280;49208;50.874;6.466;2023-03-01T08:27:07;101557.56;;;10.40;38.12
63115;BME280;49208;50.874;6.466;2023-03-01T08:29:33;101552.03;;;9.95;37.97
63115;BME280;49208;50.874;6.466;2023-03-01T08:31:59;101551.09;;;10.55;38.62
63115;BME280;49208;50.874;6.466;2023-03-01T08:34:24;101562.25;;;11.20;38.45
63115;BME280;49208;50.874;6.466;2023-03-01T08:36:49;101568.03;;;10.99;36.88
63115;BME280;49208;50.874;6.466;2023-03-01T08:39:18;101562.47;;;11.53;35.55
63115;BME280;49208;50.874;6.466;2023-03-01T08:41:44;101558.00;;;11.96;37.32
63115;BME280;49208;50.874;6.466;2023-03-01T08:44:11;101555.09;;;11.66;34.93
63115;BME280;49208;50.874;6.466;2023-03-01T08:46:39;101567.16;;;12.23;38.31
63115;BME280;49208;50.874;6.466;2023-03-01T08:49:06;101559.63;;;13.06;35.55
63115;BME280;49208;50.874;6.466;2023-03-01T08:51:33;101558.25;;;12.91;35.11
63115;BME280;49208;50.874;6.466;2023-03-01T08:54:15;101548.81;;;12.78;32.59
63115;BME280;49208;50.874;6.466;2023-03-01T08:56:41;101547.78;;;12.15;34.17
63115;BME280;49208;50.874;6.466;2023-03-01T08:59:07;101550.16;;;12.25;35.36
63115;BME280;49208;50.874;6.466;2023-03-01T09:01:33;101541.56;;;12.48;35.45
63115;BME280;49208;50.874;6.466;2023-03-01T09:03:58;101541.88;;;12.36;35.01
63115;BME280;49208;50.874;6.466;2023-03-01T09:06:24;101541.25;;;11.89;35.01
63115;BME280;49208;50.874;6.466;2023-03-01T09:08:50;101541.78;;;11.22;38.11
63115;BME280;49208;50.874;6.466;2023-03-01T09:11:18;101551.06;;;11.04;36.10
63115;BME280;49208;50.874;6.466;2023-03-01T09:13:45;101554.19;;;10.80;36.49
63115;BME280;49208;50.874;6.466;2023-03-01T09:16:13;101542.38;;;9.89;38.40
63115;BME280;49208;50.874;6.466;2023-03-01T09:18:39;101546.19;;;9.01;39.15
63115;BME280;49208;50.874;6.466;2023-03-01T09:21:13;101553.03;;;8.33;42.86
63115;BME280;49208;50.874;6.466;2023-03-01T09:23:42;101551.75;;;7.64;43.92
63115;BME280;49208;50.874;6.466;2023-03-01T09:26:09;101552.81;;;7.31;45.42
63115;BME280;49208;50.874;6.466;2023-03-01T09:28:36;101549.47;;;6.47;45.14
63115;BME280;49208;50.874;6.466;2023-03-01T09:31:02;101554.78;;;6.10;46.72
63115;BME280;49208;50.874;6.466;2023-03-01T09:33:30;101550.31;;;5.92;49.59
63115;BME280;49208;50.874;6.466;2023-03-01T09:35:57;101559.09;;;5.70;48.26
63115;BME280;49208;50.874;6.466;2023-03-01T09:38:23;101545.91;;;5.86;49.23
63115;BME280;49208;50.874;6.466;2023-03-01T09:40:48;101542.91;;;4.86;49.67
63115;BME280;49208;50.874;6.466;2023-03-01T09:45:59;101539.88;;;4.27;52.12
63115;BME280;49208;50.874;6.466;2023-03-01T09:48:42;101534.28;;;3.90;52.51
63115;BME280;49208;50.874;6.466;2023-03-01T09:51:13;101534.38;;;3.99;54.94
63115;BME280;49208;50.874;6.466;2023-03-01T09:53:41;101529.28;;;4.20;54.78
63115;BME280;49208;50.874;6.466;2023-03-01T09:58:59;101527.50;;;4.18;53.71
63115;BME280;49208;50.874;6.466;2023-03-01T10:07:26;101504.97;;;4.61;53.17
63115;BME280;49208;50.874;6.466;2023-03-01T10:09:52;101519.16;;;4.82;54.44
63115;BME280;49208;50.874;6.466;2023-03-01T10:12:20;101512.22;;;5.02;54.82
63115;BME280;49208;50.874;6.466;2023-03-01T10:15:18;101510.59;;;5.34;54.60
63115;BME280;49208;50.874;6.466;2023-03-01T10:17:57;101512.38;;;5.47;50.69
63115;BME280;49208;50.874;6.466;2023-03-01T10:20:31;101516.75;;;5.43;51.20
63115;BME280;49208;50.874;6.466;2023-03-01T10:22:58;101509.63;;;5.09;52.03
63115;BME280;49208;50.874;6.466;2023-03-01T10:25:41;101509.66;;;5.19;51.87
63115;BME280;49208;50.874;6.466;2023-03-01T10:28:16;101503.09;;;4.40;51.56
63115;BME280;49208;50.874;6.466;2023-03-01T10:30:42;101497.97;;;4.65;51.86
63115;BME280;49208;50.874;6.466;2023-03-01T10:33:22;101496.25;;;4.75;52.46
63115;BME280;49208;50.874;6.466;2023-03-01T10:35:49;101493.63;;;4.78;51.33
63115;BME280;49208;50.874;6.466;2023-03-01T10:38:15;101489.22;;;4.77;53.51
63115;BME280;49208;50.874;6.466;2023-03-01T10:41:05;101494.34;;;4.52;53.08
63115;BME280;49208;50.874;6.466;2023-03-01T10:43:43;101491.03;;;4.89;55.07
63115;BME280;49208;50.874;6.466;2023-03-01T10:46:33;101487.63;;;5.13;53.54
63115;BME280;49208;50.874;6.466;2023-03-01T10:51:32;101477.97;;;5.27;52.58
63115;BME280;49208;50.874;6.466;2023-03-01T10:53:58;101473.59;;;5.29;52.54
63115;BME280;49208;50.874;6.466;2023-03-01T10:56:23;101476.31;;;5.61;54.12
63115;BME280;49208;50.874;6.466;2023-03-01T11:01:33;101463.09;;;5.55;51.23
63115;BME280;49208;50.874;6.466;2023-03-01T11:06:31;101459.59;;;5.67;49.53
63115;BME280;49208;50.874;6.466;2023-03-01T11:09:15;101456.91;;;5.41;49.82
63115;BME280;49208;50.874;6.466;2023-03-01T11:11:41;101456.94;;;5.50;50.56
63115;BME280;49208;50.874;6.466;2023-03-01T11:16:40;101448.97;;;5.39;50.04
63115;BME280;49208;50.874;6.466;2023-03-01T11:24:16;101435.84;;;5.98;50.97
63115;BME280;49208;50.874;6.466;2023-03-01T11:26:46;101433.19;;;6.02;50.06
63115;BME280;49208;50.874;6.466;2023-03-01T11:29:38;101425.28;;;6.04;49.98
63115;BME280;49208;50.874;6.466;2023-03-01T11:32:07;101423.47;;;6.14;52.24
63115;BME280;49208;50.874;6.466;2023-03-01T11:34:51;101406.72;;;6.16;50.96
63115;BME280;49208;50.874;6.466;2023-03-01T11:37:44;101407.59;;;6.18;49.82
63115;BME280;49208;50.874;6.466;2023-03-01T11:40:25;101402.28;;;6.37;50.39
63115;BME280;49208;50.874;6.466;2023-03-01T11:43:15;101395.16;;;6.57;50.12
63115;BME280;49208;50.874;6.466;2023-03-01T11:45:51;101393.28;;;6.87;49.03
63115;BME280;49208;50.874;6.466;2023-03-01T11:51:24;101390.63;;;6.82;47.07
63115;BME280;49208;50.874;6.466;2023-03-01T11:54:04;101379.19;;;6.82;48.77
63115;BME280;49208;50.874;6.466;2023-03-01T11:56:35;101376.63;;;6.65;47.58
63115;BME280;49208;50.874;6.466;2023-03-01T12:12:30;101375.56;;;7.00;46.10
63115;BME280;49208;50.874;6.466;2023-03-01T12:15:11;101371.19;;;6.96;46.00
63115;BME280;49208;50.874;6.466;2023-03-01T12:24:07;101359.59;;;7.09;44.95
63115;BME280;49208;50.874;6.466;2023-03-01T12:26:06;101352.66;;;6.93;45.12
63115;BME280;49208;50.874;6.466;2023-03-01T12:34:59;101346.38;;;7.07;46.28
63115;BME280;49208;50.874;6.466;2023-03-01T12:45:49;101345.63;;;6.90;45.11
63115;BME280;49208;50.874;6.466;2023-03-01T12:51:09;101321.78;;;6.90;45.37
63115;BME280;49208;50.874;6.466;2023-03-01T12:53:44;101325.22;;;7.04;44.16
63115;BME280;49208;50.874;6.466;2023-03-01T12:56:14;101332.31;;;7.01;44.51
63115;BME280;49208;50.874;6.466;2023-03-01T12:59:19;101322.59;;;7.03;44.53
63115;BME280;49208;50.874;6.466;2023-03-01T13:01:55;101322.59;;;7.04;44.79
63115;BME280;49208;50.874;6.466;2023-03-01T13:17:51;101303.00;;;7.28;42.11
63115;BME280;49208;50.874;6.466;2023-03-01T13:20:31;101294.09;;;7.34;43.07
63115;BME280;49208;50.874;6.466;2023-03-01T13:33:54;101286.28;;;7.20;43.37
63115;BME280;49208;50.874;6.466;2023-03-01T13:38:55;101285.53;;;7.06;43.46
63115;BME280;49208;50.874;6.466;2023-03-01T13:46:55;101286.31;;;7.16;42.83
63115;BME280;49208;50.874;6.466;2023-03-01T13:49:23;101277.72;;;6.89;43.40
63115;BME280;49208;50.874;6.466;2023-03-01T13:51:51;101275.19;;;6.69;43.12
63115;BME280;49208;50.874;6.466;2023-03-01T13:54:25;101274.28;;;6.70;44.19
63115;BME280;49208;50.874;6.466;2023-03-01T13:56:52;101281.31;;;6.74;44.02
63115;BME280;49208;50.874;6.466;2023-03-01T13:59:20;101269.88;;;6.69;44.26
63115;BME280;49208;50.874;6.466;2023-03-01T14:01:56;101272.53;;;6.71;44.82
63115;BME280;49208;50.874;6.466;2023-03-01T14:04:24;101270.72;;;6.79;45.14
63115;BME280;49208;50.874;6.466;2023-03-01T14:06:51;101275.19;;;6.66;45.24
63115;BME280;49208;50.874;6.466;2023-03-01T14:09:22;101267.25;;;6.71;45.59
63115;BME280;49208;50.874;6.466;2023-03-01T14:14:47;101272.53;;;6.67;45.17
63115;BME280;49208;50.874;6.466;2023-03-01T14:17:35;101258.44;;;6.67;46.09
63115;BME280;49208;50.874;6.466;2023-03-01T14:20:09;101256.63;;;6.72;46.32
63115;BME280;49208;50.874;6.466;2023-03-01T14:22:36;101253.97;;;6.72;46.11
63115;BME280;49208;50.874;6.466;2023-03-01T14:25:17;101252.25;;;6.68;45.99
63115;BME280;49208;50.874;6.466;2023-03-01T14:27:44;101252.25;;;6.70;46.65
63115;BME280;49208;50.874;6.466;2023-03-01T14:30:14;101247.00;;;6.63;46.13
63115;BME280;49208;50.874;6.466;2023-03-01T14:32:40;101229.47;;;6.52;46.06
63115;BME280;49208;50.874;6.466;2023-03-01T14:35:27;101233.88;;;6.45;46.19
63115;BME280;49208;50.874;6.466;2023-03-01T14:37:53;101225.03;;;6.51;47.29
63115;BME280;49208;50.874;6.466;2023-03-01T14:40:30;101223.28;;;6.48;46.65
63115;BME280;49208;50.874;6.466;2023-03-01T14:42:59;101221.53;;;6.50;46.72
63115;BME280;49208;50.874;6.466;2023-03-01T14:45:27;101210.16;;;6.37;45.96
63115;BME280;49208;50.874;6.466;2023-03-01T14:47:55;101213.63;;;6.44;46.04
63115;BME280;49208;50.874;6.466;2023-03-01T14:50:32;101207.47;;;6.42;46.43
63115;BME280;49208;50.874;6.466;2023-03-01T14:53:02;101200.41;;;6.42;47.11
63115;BME280;49208;50.874;6.466;2023-03-01T14:55:33;101196.88;;;6.40;46.79
63115;BME280;49208;50.874;6.466;2023-03-01T14:58:06;101193.38;;;6.38;46.42
63115;BME280;49208;50.874;6.466;2023-03-01T15:00:33;101191.59;;;6.43;47.38
63115;BME280;49208;50.874;6.466;2023-03-01T15:05:50;101181.94;;;6.35;47.40
63115;BME280;49208;50.874;6.466;2023-03-01T15:08:19;101186.38;;;6.31;46.91
63115;BME280;49208;50.874;6.466;2023-03-01T15:11:15;101181.09;;;6.28;47.64
63115;BME280;49208;50.874;6.466;2023-03-01T15:13:42;101175.81;;;6.28;47.46
63115;BME280;49208;50.874;6.466;2023-03-01T15:16:21;101182.88;;;6.29;47.89
63115;BME280;49208;50.874;6.466;2023-03-01T15:18:54;101174.94;;;6.26;48.09
63115;BME280;49208;50.874;6.466;2023-03-01T15:21:30;101182.94;;;6.14;47.57
63115;BME280;49208;50.874;6.466;2023-03-01T15:24:26;101182.09;;;6.10;47.63
63115;BME280;49208;50.874;6.466;2023-03-01T15:26:56;101185.63;;;6.11;47.68
63115;BME280;49208;50.874;6.466;2023-03-01T15:29:32;101181.22;;;6.06;47.22
63115;BME280;49208;50.874;6.466;2023-03-01T15:32:03;101177.72;;;6.04;48.08
63115;BME280;49208;50.874;6.466;2023-03-01T15:34:34;101180.38;;;6.06;48.61
63115;BME280;49208;50.874;6.466;2023-03-01T15:37:03;101172.44;;;6.03;47.10
63115;BME280;49208;50.874;6.466;2023-03-01T15:39:41;101171.59;;;5.98;49.17
63115;BME280;49208;50.874;6.466;2023-03-01T15:47:34;101160.16;;;5.85;49.41
63115;BME280;49208;50.874;6.466;2023-03-01T15:50:00;101156.63;;;5.84;49.29
63115;BME280;49208;50.874;6.466;2023-03-01T15:52:33;101161.06;;;5.75;49.94
63115;BME280;49208;50.874;6.466;2023-03-01T15:55:04;101153.19;;;5.69;49.76
63115;BME280;49208;50.874;6.466;2023-03-01T15:57:31;101153.19;;;5.67;50.33
63115;BME280;49208;50.874;6.466;2023-03-01T15:59:56;101145.31;;;5.62;50.43
63115;BME280;49208;50.874;6.466;2023-03-01T16:02:23;101146.19;;;5.58;51.09
63115;BME280;49208;50.874;6.466;2023-03-01T16:04:49;101140.91;;;5.58;51.46
63115;BME280;49208;50.874;6.466;2023-03-01T16:07:15;101136.53;;;5.50;51.22
63115;BME280;49208;50.874;6.466;2023-03-01T16:09:41;101147.09;;;5.46;51.04
63115;BME280;49208;50.874;6.466;2023-03-01T16:12:10;101139.22;;;5.40;51.06
63115;BME280;49208;50.874;6.466;2023-03-01T16:14:37;101140.09;;;5.42;51.98
63115;BME280;49208;50.874;6.466;2023-03-01T16:17:03;101136.56;;;5.31;51.63
63115;BME280;49208;50.874;6.466;2023-03-01T16:19:29;101141.88;;;5.28;52.16
63115;BME280;49208;50.874;6.466;2023-03-01T16:21:54;101140.13;;;5.24;52.03
63115;BME280;49208;50.874;6.466;2023-03-01T16:24:21;101143.66;;;5.18;52.09
63115;BME280;49208;50.874;6.466;2023-03-01T16:26:46;101138.38;;;5.12;52.96
63115;BME280;49208;50.874;6.466;2023-03-01T16:29:12;101141.94;;;5.05;52.64
63115;BME280;49208;50.874;6.466;2023-03-01T16:31:37;101139.31;;;5.00;51.98
63115;BME280;49208;50.874;6.466;2023-03-01T16:34:02;101141.06;;;4.95;52.57
63115;BME280;49208;50.874;6.466;2023-03-01T16:36:28;101141.94;;;4.93;51.67
63115;BME280;49208;50.874;6.466;2023-03-01T16:38:54;101136.69;;;4.88;51.97
63115;BME280;49208;50.874;6.466;2023-03-01T16:41:22;101134.03;;;4.80;52.24
63115;BME280;49208;50.874;6.466;2023-03-01T16:43:48;101143.72;;;4.72;53.29
63115;BME280;49208;50.874;6.466;2023-03-01T16:46:19;101144.59;;;4.63;53.04
63115;BME280;49208;50.874;6.466;2023-03-01T16:48:45;101138.47;;;4.57;52.90
63115;BME280;49208;50.874;6.466;2023-03-01T16:51:11;101139.34;;;4.53;53.82
63115;BME280;49208;50.874;6.466;2023-03-01T16:53:38;101136.69;;;4.47;53.25
63115;BME280;49208;50.874;6.466;2023-03-01T16:56:08;101141.94;;;4.42;53.11
63115;BME280;49208;50.874;6.466;2023-03-01T16:58:36;101136.69;;;4.36;52.77
63115;BME280;49208;50.874;6.466;2023-03-01T17:01:15;101141.94;;;4.31;53.57
63115;BME280;49208;50.874;6.466;2023-03-01T17:03:41;101151.59;;;4.23;53.02
63115;BME280;49208;50.874;6.466;2023-03-01T17:06:10;101146.31;;;4.17;53.62
63115;BME280;49208;50.874;6.466;2023-03-01T17:08:36;101148.06;;;4.10;53.84
63115;BME280;49208;50.874;6.466;2023-03-01T17:11:10;101150.66;;;4.02;53.74
63115;BME280;49208;50.874;6.466;2023-03-01T17:13:37;101148.88;;;3.94;54.20
63115;BME280;49208;50.874;6.466;2023-03-01T17:16:04;101147.13;;;3.91;54.34
63115;BME280;49208;50.874;6.466;2023-03-01T17:18:30;101154.13;;;3.84;54.53
63115;BME280;49208;50.874;6.466;2023-03-01T17:20:56;101151.50;;;3.80;55.21
63115;BME280;49208;50.874;6.466;2023-03-01T17:23:21;101154.09;;;3.72;55.18
63115;BME280;49208;50.874;6.466;2023-03-01T17:25:46;101154.94;;;3.68;55.70
63115;BME280;49208;50.874;6.466;2023-03-01T17:28:13;101153.19;;;3.64;55.98
63115;BME280;49208;50.874;6.466;2023-03-01T17:30:44;101148.75;;;3.54;56.21
63115;BME280;49208;50.874;6.466;2023-03-01T17:33:12;101153.13;;;3.49;56.76
63115;BME280;49208;50.874;6.466;2023-03-01T17:35:38;101160.13;;;3.45;56.51
63115;BME280;49208;50.874;6.466;2023-03-01T17:38:04;101157.47;;;3.43;56.18
63115;BME280;49208;50.874;6.466;2023-03-01T17:40:31;101166.22;;;3.44;56.07
63115;BME280;49208;50.874;6.466;2023-03-01T17:42:57;101161.81;;;3.40;56.52
63115;BME280;49208;50.874;6.466;2023-03-01T17:45:22;101158.34;;;3.46;55.51
63115;BME280;49208;50.874;6.466;2023-03-01T17:47:48;101167.09;;;3.41;55.60
63115;BME280;49208;50.874;6.466;2023-03-01T17:50:13;101168.84;;;3.39;55.68
63115;BME280;49208;50.874;6.466;2023-03-01T17:52:39;101163.53;;;3.33;56.14
63115;BME280;49208;50.874;6.466;2023-03-01T17:55:06;101170.56;;;3.28;56.39
63115;BME280;49208;50.874;6.466;2023-03-01T17:57:33;101167.00;;;3.24;56.85
63115;BME280;49208;50.874;6.466;2023-03-01T17:59:58;101162.59;;;3.23;56.53
63115;BME280;49208;50.874;6.466;2023-03-01T18:02:24;101160.00;;;3.22;56.55
63115;BME280;49208;50.874;6.466;2023-03-01T18:04:51;101164.38;;;3.24;56.58
63115;BME280;49208;50.874;6.466;2023-03-01T18:07:17;101161.75;;;3.26;56.13
63115;BME280;49208;50.874;6.466;2023-03-01T18:09:43;101173.16;;;3.25;55.92
63115;BME280;49208;50.874;6.466;2023-03-01T18:12:08;101169.59;;;3.18;56.11
63115;BME280;49208;50.874;6.466;2023-03-01T18:14:35;101167.81;;;3.13;56.68
63115;BME280;49208;50.874;6.466;2023-03-01T18:17:00;101162.47;;;3.02;57.10
63115;BME280;49208;50.874;6.466;2023-03-01T18:19:28;101162.41;;;2.94;57.34
63115;BME280;49208;50.874;6.466;2023-03-01T18:21:53;101166.78;;;2.89;57.77
63115;BME280;49208;50.874;6.466;2023-03-01T18:24:19;101168.53;;;2.90;57.48
63115;BME280;49208;50.874;6.466;2023-03-01T18:26:44;101169.38;;;2.85;57.43
63115;BME280;49208;50.874;6.466;2023-03-01T18:29:10;101173.72;;;2.84;57.23
63115;BME280;49208;50.874;6.466;2023-03-01T18:31:35;101165.84;;;2.82;57.41
63115;BME280;49208;50.874;6.466;2023-03-01T18:34:01;101158.00;;;2.87;57.18
63115;BME280;49208;50.874;6.466;2023-03-01T18:36:29;101157.19;;;2.97;56.13
63115;BME280;49208;50.874;6.466;2023-03-01T18:38:55;101155.41;;;2.93;56.39
63115;BME280;49208;50.874;6.466;2023-03-01T18:41:25;101151.84;;;2.88;56.65
63115;BME280;49208;50.874;6.466;2023-03-01T18:43:51;101154.50;;;2.87;56.68
63115;BME280;49208;50.874;6.466;2023-03-01T18:46:17;101150.94;;;2.83;56.94
63115;BME280;49208;50.874;6.466;2023-03-01T18:48:44;101148.28;;;2.78;57.05
63115;BME280;49208;50.874;6.466;2023-03-01T18:51:12;101140.41;;;2.81;57.23
63115;BME280;49208;50.874;6.466;2023-03-01T18:53:38;101151.78;;;2.77;57.28
63115;BME280;49208;50.874;6.466;2023-03-01T18:56:04;101145.63;;;2.75;57.26
63115;BME280;49208;50.874;6.466;2023-03-01T18:58:30;101139.50;;;2.76;57.19
63115;BME280;49208;50.874;6.466;2023-03-01T19:00:55;101146.44;;;2.67;58.07
63115;BME280;49208;50.874;6.466;2023-03-01T19:03:21;101145.53;;;2.65;57.69
63115;BME280;49208;50.874;6.466;2023-03-01T19:05:46;101140.28;;;2.63;57.91
63115;BME280;49208;50.874;6.466;2023-03-01T19:08:11;101146.41;;;2.63;57.86
63115;BME280;49208;50.874;6.466;2023-03-01T19:10:37;101146.41;;;2.62;58.06
63115;BME280;49208;50.874;6.466;2023-03-01T19:13:02;101151.63;;;2.59;58.51
63115;BME280;49208;50.874;6.466;2023-03-01T19:15:27;101145.50;;;2.55;58.15
63115;BME280;49208;50.874;6.466;2023-03-01T19:17:53;101141.06;;;2.50;58.37
63115;BME280;49208;50.874;6.466;2023-03-01T19:20:18;101148.88;;;2.43;58.59
63115;BME280;49208;50.874;6.466;2023-03-01T19:22:44;101144.41;;;2.36;59.34
63115;BME280;49208;50.874;6.466;2023-03-01T19:25:09;101137.34;;;2.29;59.33
63115;BME280;49208;50.874;6.466;2023-03-01T19:27:34;101152.19;;;2.24;59.60
63115;BME280;49208;50.874;6.466;2023-03-01T19:30:00;101145.13;;;2.17;59.93
63115;BME280;49208;50.874;6.466;2023-03-01T19:32:25;101145.06;;;2.11;60.23
63115;BME280;49208;50.874;6.466;2023-03-01T19:34:51;101141.50;;;2.07;60.23
63115;BME280;49208;50.874;6.466;2023-03-01T19:37:16;101137.19;;;2.11;60.43
63115;BME280;49208;50.874;6.466;2023-03-01T19:39:42;101140.69;;;2.11;60.36
63115;BME280;49208;50.874;6.466;2023-03-01T19:42:07;101136.31;;;2.10;60.23
63115;BME280;49208;50.874;6.466;2023-03-01T19:44:33;101138.03;;;2.11;60.19
63115;BME280;49208;50.874;6.466;2023-03-01T19:46:58;101138.88;;;2.06;60.58
63115;BME280;49208;50.874;6.466;2023-03-01T19:49:24;101132.72;;;2.05;60.74
63115;BME280;49208;50.874;6.466;2023-03-01T19:51:51;101131.78;;;1.98;60.78
63115;BME280;49208;50.874;6.466;2023-03-01T19:54:17;101128.38;;;2.07;60.28
63115;BME280;49208;50.874;6.466;2023-03-01T19:56:47;101131.84;;;2.05;60.55
63115;BME280;49208;50.874;6.466;2023-03-01T19:59:13;101130.06;;;1.97;61.48
63115;BME280;49208;50.874;6.466;2023-03-01T20:01:39;101138.69;;;1.89;61.30
63115;BME280;49208;50.874;6.466;2023-03-01T20:04:08;101130.75;;;1.84;61.98
63115;BME280;49208;50.874;6.466;2023-03-01T20:06:35;101129.84;;;1.79;62.05
63115;BME280;49208;50.874;6.466;2023-03-01T20:09:02;101121.94;;;1.74;61.99
63115;BME280;49208;50.874;6.466;2023-03-01T20:11:28;101119.22;;;1.68;62.53
63115;BME280;49208;50.874;6.466;2023-03-01T20:13:54;101120.88;;;1.61;63.09
63115;BME280;49208;50.874;6.466;2023-03-01T20:16:19;101119.09;;;1.56;63.05
63115;BME280;49208;50.874;6.466;2023-03-01T20:18:47;101112.88;;;1.51;63.12
63115;BME280;49208;50.874;6.466;2023-03-01T20:21:12;101123.34;;;1.49;63.71
63115;BME280;49208;50.874;6.466;2023-03-01T20:23:38;101125.97;;;1.48;63.64
63115;BME280;49208;50.874;6.466;2023-03-01T20:26:07;101123.28;;;1.45;63.75
63115;BME280;49208;50.874;6.466;2023-03-01T20:28:34;101120.69;;;1.46;63.70
63115;BME280;49208;50.874;6.466;2023-03-01T20:31:08;101123.41;;;1.52;63.06
63115;BME280;49208;50.874;6.466;2023-03-01T20:33:35;101127.81;;;1.55;63.32
63115;BME280;49208;50.874;6.466;2023-03-01T20:36:00;101130.41;;;1.55;63.52
63115;BME280;49208;50.874;6.466;2023-03-01T20:38:26;101120.81;;;1.57;63.11
63115;BME280;49208;50.874;6.466;2023-03-01T20:41:06;101121.69;;;1.57;63.01
63115;BME280;49208;50.874;6.466;2023-03-01T20:43:32;101131.28;;;1.52;63.05
63115;BME280;49208;50.874;6.466;2023-03-01T20:46:02;101126.00;;;1.51;62.66
63115;BME280;49208;50.874;6.466;2023-03-01T20:48:28;101128.66;;;1.52;62.70
63115;BME280;49208;50.874;6.466;2023-03-01T20:50:53;101126.00;;;1.51;62.89
63115;BME280;49208;50.874;6.466;2023-03-01T20:53:20;101126.91;;;1.53;62.65
63115;BME280;49208;50.874;6.466;2023-03-01T20:55:46;101128.59;;;1.49;62.90
63115;BME280;49208;50.874;6.466;2023-03-01T20:58:11;101125.97;;;1.48;62.94
63115;BME280;49208;50.874;6.466;2023-03-01T21:00:37;101130.28;;;1.44;62.81
63115;BME280;49208;50.874;6.466;2023-03-01T21:03:02;101135.56;;;1.47;62.52
63115;BME280;49208;50.874;6.466;2023-03-01T21:05:28;101139.06;;;1.46;63.13
63115;BME280;49208;50.874;6.466;2023-03-01T21:07:53;101142.50;;;1.42;62.98
63115;BME280;49208;50.874;6.466;2023-03-01T21:10:19;101137.25;;;1.42;62.92
63115;BME280;49208;50.874;6.466;2023-03-01T21:12:44;101149.44;;;1.38;63.13
63115;BME280;49208;50.874;6.466;2023-03-01T21:15:10;101135.38;;;1.32;63.46
63115;BME280;49208;50.874;6.466;2023-03-01T21:17:35;101136.19;;;1.28;63.62
63115;BME280;49208;50.874;6.466;2023-03-01T21:20:00;101139.59;;;1.22;64.34
63115;BME280;49208;50.874;6.466;2023-03-01T21:22:26;101143.06;;;1.19;64.17
63115;BME280;49208;50.874;6.466;2023-03-01T21:24:53;101143.94;;;1.20;63.78
63115;BME280;49208;50.874;6.466;2023-03-01T21:27:19;101134.34;;;1.19;63.54
63115;BME280;49208;50.874;6.466;2023-03-01T21:29:45;101136.06;;;1.17;63.92
63115;BME280;49208;50.874;6.466;2023-03-01T21:32:12;101136.91;;;1.16;63.86
63115;BME280;49208;50.874;6.466;2023-03-01T21:34:38;101136.00;;;1.12;64.07
63115;BME280;49208;50.874;6.466;2023-03-01T21:37:05;101136.88;;;1.13;64.08
63115;BME280;49208;50.874;6.466;2023-03-01T21:39:31;101127.25;;;1.13;63.53
63115;BME280;49208;50.874;6.466;2023-03-01T21:41:59;101130.72;;;1.11;63.91
63115;BME280;49208;50.874;6.466;2023-03-01T21:44:26;101119.38;;;1.10;63.79
63115;BME280;49208;50.874;6.466;2023-03-01T21:46:52;101114.06;;;1.07;64.20
63115;BME280;49208;50.874;6.466;2023-03-01T21:49:19;101127.16;;;1.04;64.48
63115;BME280;49208;50.874;6.466;2023-03-01T21:51:45;101122.69;;;0.98;64.72
63115;BME280;49208;50.874;6.466;2023-03-01T21:54:12;101129.66;;;0.96;64.76
63115;BME280;49208;50.874;6.466;2023-03-01T21:56:38;101126.09;;;0.93;64.47
63115;BME280;49208;50.874;6.466;2023-03-01T21:59:05;101126.91;;;0.89;64.75
63115;BME280;49208;50.874;6.466;2023-03-01T22:01:31;101125.97;;;0.84;64.84